sensor_id;sensor_type;location;lat;lon;timestamp;temperature;humidity
84298;DHT22;74466;51.188;3.242;2024-01-27T00:00:09;3.70;90.10
84298;DHT22;74466;51.188;3.242;2024-01-27T00:02:36;3.80;90.30
84298;DHT22;74466;51.188;3.242;2024-01-27T00:05:02;3.70;90.20
84298;DHT22;74466;51.188;3.242;2024-01-27T00:07:28;3.70;90.20
84298;DHT22;74466;51.188;3.242;2024-01-27T00:09:54;3.70;90.40
84298;DHT22;74466;51.188;3.242;2024-01-27T00:12:20;3.60;90.30
84298;DHT22;74466;51.188;3.242;2024-01-27T00:14:46;3.60;90.50
84298;DHT22;74466;51.188;3.242;2024-01-27T00:17:12;3.60;90.70
84298;DHT22;74466;51.188;3.242;2024-01-27T00:19:38;3.60;90.80
84298;DHT22;74466;51.188;3.242;2024-01-27T00:22:04;3.50;90.80
84298;DHT22;74466;51.188;3.242;2024-01-27T00:24:29;3.50;90.70
84298;DHT22;74466;51.188;3.242;2024-01-27T00:26:55;3.40;90.70
84298;DHT22;74466;51.188;3.242;2024-01-27T00:29:21;3.30;91.10
84298;DHT22;74466;51.188;3.242;2024-01-27T00:31:47;3.40;91.10
84298;DHT22;74466;51.188;3.242;2024-01-27T00:34:14;3.40;90.70
84298;DHT22;74466;51.188;3.242;2024-01-27T00:36:40;3.30;90.80
84298;DHT22;74466;51.188;3.242;2024-01-27T00:39:07;3.10;91.40
84298;DHT22;74466;51.188;3.242;2024-01-27T00:41:34;3.10;91.60
84298;DHT22;74466;51.188;3.242;2024-01-27T00:44:00;3.10;91.60
84298;DHT22;74466;51.188;3.242;2024-01-27T00:46:25;3.10;91.60
84298;DHT22;74466;51.188;3.242;2024-01-27T00:48:51;3.10;91.40
84298;DHT22;74466;51.188;3.242;2024-01-27T00:51:17;3.10;91.20
84298;DHT22;74466;51.188;3.242;2024-01-27T00:53:42;3.10;91.10
84298;DHT22;74466;51.188;3.242;2024-01-27T00:56:08;3.10;91.20
84298;DHT22;74466;51.188;3.242;2024-01-27T00:58:34;3.10;90.80
84298;DHT22;74466;51.188;3.242;2024-01-27T01:01:00;2.90;91.20
84298;DHT22;74466;51.188;3.242;2024-01-27T01:03:26;2.80;91.80
84298;DHT22;74466;51.188;3.242;2024-01-27T01:05:52;2.80;92.00
84298;DHT22;74466;51.188;3.242;2024-01-27T01:08:18;2.90;91.90
84298;DHT22;74466;51.188;3.242;2024-01-27T01:10:44;2.80;91.50
84298;DHT22;74466;51.188;3.242;2024-01-27T01:13:09;2.80;91.70
84298;DHT22;74466;51.188;3.242;2024-01-27T01:15:35;2.80;91.80
84298;DHT22;74466;51.188;3.242;2024-01-27T01:18:01;2.80;91.70
84298;DHT22;74466;51.188;3.242;2024-01-27T01:20:27;2.80;91.70
84298;DHT22;74466;51.188;3.242;2024-01-27T01:22:55;2.70;91.40
84298;DHT22;74466;51.188;3.242;2024-01-27T01:25:21;2.80;91.70
84298;DHT22;74466;51.188;3.242;2024-01-27T01:27:47;2.70;91.70
84298;DHT22;74466;51.188;3.242;2024-01-27T01:30:15;2.80;91.70
84298;DHT22;74466;51.188;3.242;2024-01-27T01:32:41;2.70;91.80
84298;DHT22;74466;51.188;3.242;2024-01-27T01:35:06;2.80;92.10
84298;DHT22;74466;51.188;3.242;2024-01-27T01:37:32;2.90;92.00
84298;DHT22;74466;51.188;3.242;2024-01-27T01:39:59;2.90;92.30
84298;DHT22;74466;51.188;3.242;2024-01-27T01:42:24;3.00;92.40
84298;DHT22;74466;51.188;3.242;2024-01-27T01:44:51;3.10;92.40
84298;DHT22;74466;51.188;3.242;2024-01-27T01:47:17;3.10;92.30
84298;DHT22;74466;51.188;3.242;2024-01-27T01:49:43;3.00;92.30
84298;DHT22;74466;51.188;3.242;2024-01-27T01:52:09;2.90;93.10
84298;DHT22;74466;51.188;3.242;2024-01-27T01:54:36;2.90;92.90
84298;DHT22;74466;51.188;3.242;2024-01-27T01:57:02;2.90;93.00
84298;DHT22;74466;51.188;3.242;2024-01-27T01:59:28;2.90;92.90
84298;DHT22;74466;51.188;3.242;2024-01-27T02:01:55;3.00;92.90
84298;DHT22;74466;51.188;3.242;2024-01-27T02:04:20;3.00;92.70
84298;DHT22;74466;51.188;3.242;2024-01-27T02:06:46;2.90;92.50
84298;DHT22;74466;51.188;3.242;2024-01-27T02:09:12;2.80;92.60
84298;DHT22;74466;51.188;3.242;2024-01-27T02:11:38;2.80;92.60
84298;DHT22;74466;51.188;3.242;2024-01-27T02:14:04;2.90;92.60
84298;DHT22;74466;51.188;3.242;2024-01-27T02:16:30;2.90;92.20
84298;DHT22;74466;51.188;3.242;2024-01-27T02:18:56;2.80;92.60
84298;DHT22;74466;51.188;3.242;2024-01-27T02:21:22;2.80;92.00
84298;DHT22;74466;51.188;3.242;2024-01-27T02:23:47;2.80;91.80
84298;DHT22;74466;51.188;3.242;2024-01-27T02:26:13;2.80;91.90
84298;DHT22;74466;51.188;3.242;2024-01-27T02:28:39;2.80;91.80
84298;DHT22;74466;51.188;3.242;2024-01-27T02:31:04;2.70;91.70
84298;DHT22;74466;51.188;3.242;2024-01-27T02:33:30;2.70;92.00
84298;DHT22;74466;51.188;3.242;2024-01-27T02:35:56;2.70;91.80
84298;DHT22;74466;51.188;3.242;2024-01-27T02:38:22;2.60;91.30
84298;DHT22;74466;51.188;3.242;2024-01-27T02:40:47;2.60;91.60
84298;DHT22;74466;51.188;3.242;2024-01-27T02:43:13;2.50;92.00
84298;DHT22;74466;51.188;3.242;2024-01-27T02:45:39;2.60;91.80
84298;DHT22;74466;51.188;3.242;2024-01-27T02:48:05;2.50;92.20
84298;DHT22;74466;51.188;3.242;2024-01-27T02:50:31;2.40;91.90
84298;DHT22;74466;51.188;3.242;2024-01-27T02:52:56;2.40;91.90
84298;DHT22;74466;51.188;3.242;2024-01-27T02:55:22;2.30;91.80
84298;DHT22;74466;51.188;3.242;2024-01-27T02:57:48;2.30;92.30
84298;DHT22;74466;51.188;3.242;2024-01-27T03:00:14;2.30;92.10
84298;DHT22;74466;51.188;3.242;2024-01-27T03:02:40;2.20;92.40
84298;DHT22;74466;51.188;3.242;2024-01-27T03:05:05;2.20;92.60
84298;DHT22;74466;51.188;3.242;2024-01-27T03:07:31;2.10;92.10
84298;DHT22;74466;51.188;3.242;2024-01-27T03:09:57;2.10;92.20
84298;DHT22;74466;51.188;3.242;2024-01-27T03:12:23;2.10;92.00
84298;DHT22;74466;51.188;3.242;2024-01-27T03:14:48;2.10;92.00
84298;DHT22;74466;51.188;3.242;2024-01-27T03:17:15;2.10;92.00
84298;DHT22;74466;51.188;3.242;2024-01-27T03:19:41;2.10;92.00
84298;DHT22;74466;51.188;3.242;2024-01-27T03:22:07;1.90;92.40
84298;DHT22;74466;51.188;3.242;2024-01-27T03:24:33;1.90;92.60
84298;DHT22;74466;51.188;3.242;2024-01-27T03:26:58;1.90;92.50
84298;DHT22;74466;51.188;3.242;2024-01-27T03:29:24;1.80;92.80
84298;DHT22;74466;51.188;3.242;2024-01-27T03:31:50;1.90;92.70
84298;DHT22;74466;51.188;3.242;2024-01-27T03:34:16;1.80;92.90
84298;DHT22;74466;51.188;3.242;2024-01-27T03:36:44;1.90;93.30
84298;DHT22;74466;51.188;3.242;2024-01-27T03:39:13;1.90;92.90
84298;DHT22;74466;51.188;3.242;2024-01-27T03:41:39;1.90;92.60
84298;DHT22;74466;51.188;3.242;2024-01-27T03:44:04;1.90;92.40
84298;DHT22;74466;51.188;3.242;2024-01-27T03:46:30;1.90;92.30
84298;DHT22;74466;51.188;3.242;2024-01-27T03:48:56;1.90;92.20
84298;DHT22;74466;51.188;3.242;2024-01-27T03:51:21;1.90;92.10
84298;DHT22;74466;51.188;3.242;2024-01-27T03:53:48;1.90;92.40
84298;DHT22;74466;51.188;3.242;2024-01-27T03:56:14;1.80;92.50
84298;DHT22;74466;51.188;3.242;2024-01-27T03:58:40;1.80;92.40
84298;DHT22;74466;51.188;3.242;2024-01-27T04:01:06;1.70;92.00
84298;DHT22;74466;51.188;3.242;2024-01-27T04:03:32;1.70;92.00
84298;DHT22;74466;51.188;3.242;2024-01-27T04:05:57;1.60;92.10
84298;DHT22;74466;51.188;3.242;2024-01-27T04:08:23;1.60;92.10
84298;DHT22;74466;51.188;3.242;2024-01-27T04:10:49;1.60;92.30
84298;DHT22;74466;51.188;3.242;2024-01-27T04:13:15;1.60;92.60
84298;DHT22;74466;51.188;3.242;2024-01-27T04:15:41;1.50;92.30
84298;DHT22;74466;51.188;3.242;2024-01-27T04:18:07;1.50;92.40
84298;DHT22;74466;51.188;3.242;2024-01-27T04:20:34;1.50;92.50
84298;DHT22;74466;51.188;3.242;2024-01-27T04:23:00;1.50;92.60
84298;DHT22;74466;51.188;3.242;2024-01-27T04:25:26;1.50;92.40
84298;DHT22;74466;51.188;3.242;2024-01-27T04:27:52;1.50;92.40
84298;DHT22;74466;51.188;3.242;2024-01-27T04:30:18;1.50;92.20
84298;DHT22;74466;51.188;3.242;2024-01-27T04:32:44;1.50;92.10
84298;DHT22;74466;51.188;3.242;2024-01-27T04:35:10;1.40;92.20
84298;DHT22;74466;51.188;3.242;2024-01-27T04:37:36;1.40;92.30
84298;DHT22;74466;51.188;3.242;2024-01-27T04:40:04;1.50;92.40
84298;DHT22;74466;51.188;3.242;2024-01-27T04:42:34;1.40;92.20
84298;DHT22;74466;51.188;3.242;2024-01-27T04:45:01;1.40;92.10
84298;DHT22;74466;51.188;3.242;2024-01-27T04:47:27;1.30;92.70
84298;DHT22;74466;51.188;3.242;2024-01-27T04:49:53;1.10;92.80
84298;DHT22;74466;51.188;3.242;2024-01-27T04:52:19;1.20;92.70
84298;DHT22;74466;51.188;3.242;2024-01-27T04:54:44;1.20;92.50
84298;DHT22;74466;51.188;3.242;2024-01-27T04:57:10;1.20;92.60
84298;DHT22;74466;51.188;3.242;2024-01-27T04:59:36;1.20;92.80
84298;DHT22;74466;51.188;3.242;2024-01-27T05:02:02;1.20;92.60
84298;DHT22;74466;51.188;3.242;2024-01-27T05:04:28;1.20;92.50
84298;DHT22;74466;51.188;3.242;2024-01-27T05:06:53;1.30;92.70
84298;DHT22;74466;51.188;3.242;2024-01-27T05:09:19;1.40;92.50
84298;DHT22;74466;51.188;3.242;2024-01-27T05:11:45;1.20;92.30
84298;DHT22;74466;51.188;3.242;2024-01-27T05:14:11;1.10;92.40
84298;DHT22;74466;51.188;3.242;2024-01-27T05:16:37;1.20;92.60
84298;DHT22;74466;51.188;3.242;2024-01-27T05:19:03;1.30;92.30
84298;DHT22;74466;51.188;3.242;2024-01-27T05:21:29;1.30;92.10
84298;DHT22;74466;51.188;3.242;2024-01-27T05:23:55;1.20;92.10
84298;DHT22;74466;51.188;3.242;2024-01-27T05:26:21;1.10;92.20
84298;DHT22;74466;51.188;3.242;2024-01-27T05:28:47;1.10;92.30
84298;DHT22;74466;51.188;3.242;2024-01-27T05:31:12;1.00;92.50
84298;DHT22;74466;51.188;3.242;2024-01-27T05:33:39;1.10;92.70
84298;DHT22;74466;51.188;3.242;2024-01-27T05:36:07;1.10;92.80
84298;DHT22;74466;51.188;3.242;2024-01-27T05:38:33;1.00;92.90
84298;DHT22;74466;51.188;3.242;2024-01-27T05:41:02;1.00;93.10
84298;DHT22;74466;51.188;3.242;2024-01-27T05:43:28;0.90;93.20
84298;DHT22;74466;51.188;3.242;2024-01-27T05:45:54;1.00;93.40
84298;DHT22;74466;51.188;3.242;2024-01-27T05:48:20;1.00;93.30
84298;DHT22;74466;51.188;3.242;2024-01-27T05:50:55;1.00;92.90
84298;DHT22;74466;51.188;3.242;2024-01-27T05:53:22;0.90;92.80
84298;DHT22;74466;51.188;3.242;2024-01-27T05:55:47;0.90;93.20
84298;DHT22;74466;51.188;3.242;2024-01-27T05:58:13;0.90;93.30
84298;DHT22;74466;51.188;3.242;2024-01-27T06:00:39;1.00;93.20
84298;DHT22;74466;51.188;3.242;2024-01-27T06:03:05;1.10;93.00
84298;DHT22;74466;51.188;3.242;2024-01-27T06:05:31;1.10;92.80
84298;DHT22;74466;51.188;3.242;2024-01-27T06:07:57;1.00;92.90
84298;DHT22;74466;51.188;3.242;2024-01-27T06:10:22;1.00;92.90
84298;DHT22;74466;51.188;3.242;2024-01-27T06:12:50;0.90;92.90
84298;DHT22;74466;51.188;3.242;2024-01-27T06:15:16;1.00;92.90
84298;DHT22;74466;51.188;3.242;2024-01-27T06:17:42;0.90;92.90
84298;DHT22;74466;51.188;3.242;2024-01-27T06:20:08;0.80;93.20
84298;DHT22;74466;51.188;3.242;2024-01-27T06:22:34;0.70;93.40
84298;DHT22;74466;51.188;3.242;2024-01-27T06:25:00;0.80;93.50
84298;DHT22;74466;51.188;3.242;2024-01-27T06:27:25;0.80;93.30
84298;DHT22;74466;51.188;3.242;2024-01-27T06:29:51;1.00;93.10
84298;DHT22;74466;51.188;3.242;2024-01-27T06:32:17;0.90;92.90
84298;DHT22;74466;51.188;3.242;2024-01-27T06:34:43;0.90;92.90
84298;DHT22;74466;51.188;3.242;2024-01-27T06:37:09;0.90;92.90
84298;DHT22;74466;51.188;3.242;2024-01-27T06:39:34;0.80;93.00
84298;DHT22;74466;51.188;3.242;2024-01-27T06:42:00;0.70;93.30
84298;DHT22;74466;51.188;3.242;2024-01-27T06:44:26;0.60;93.50
84298;DHT22;74466;51.188;3.242;2024-01-27T06:46:52;0.70;93.30
84298;DHT22;74466;51.188;3.242;2024-01-27T06:49:17;0.80;93.20
84298;DHT22;74466;51.188;3.242;2024-01-27T06:51:43;0.80;92.90
84298;DHT22;74466;51.188;3.242;2024-01-27T06:54:10;0.70;93.10
84298;DHT22;74466;51.188;3.242;2024-01-27T06:56:35;0.80;93.20
84298;DHT22;74466;51.188;3.242;2024-01-27T06:59:02;0.80;92.80
84298;DHT22;74466;51.188;3.242;2024-01-27T07:01:28;0.80;92.50
84298;DHT22;74466;51.188;3.242;2024-01-27T07:03:53;0.70;92.80
84298;DHT22;74466;51.188;3.242;2024-01-27T07:06:19;0.70;93.10
84298;DHT22;74466;51.188;3.242;2024-01-27T07:08:44;0.70;93.00
84298;DHT22;74466;51.188;3.242;2024-01-27T07:11:10;0.70;92.80
84298;DHT22;74466;51.188;3.242;2024-01-27T07:13:36;0.80;92.70
84298;DHT22;74466;51.188;3.242;2024-01-27T07:16:01;0.60;92.70
84298;DHT22;74466;51.188;3.242;2024-01-27T07:18:27;0.70;92.70
84298;DHT22;74466;51.188;3.242;2024-01-27T07:20:54;0.70;92.60
84298;DHT22;74466;51.188;3.242;2024-01-27T07:23:20;0.60;92.90
84298;DHT22;74466;51.188;3.242;2024-01-27T07:25:46;0.60;93.10
84298;DHT22;74466;51.188;3.242;2024-01-27T07:28:12;0.60;92.90
84298;DHT22;74466;51.188;3.242;2024-01-27T07:30:37;0.70;93.00
84298;DHT22;74466;51.188;3.242;2024-01-27T07:33:03;0.70;92.60
84298;DHT22;74466;51.188;3.242;2024-01-27T07:35:29;0.70;92.60
84298;DHT22;74466;51.188;3.242;2024-01-27T07:37:57;0.70;92.40
84298;DHT22;74466;51.188;3.242;2024-01-27T07:40:23;0.50;92.60
84298;DHT22;74466;51.188;3.242;2024-01-27T07:42:49;0.50;93.30
84298;DHT22;74466;51.188;3.242;2024-01-27T07:45:14;0.50;93.60
84298;DHT22;74466;51.188;3.242;2024-01-27T07:47:41;0.50;93.90
84298;DHT22;74466;51.188;3.242;2024-01-27T07:50:07;0.50;94.10
84298;DHT22;74466;51.188;3.242;2024-01-27T07:52:35;0.50;94.70
84298;DHT22;74466;51.188;3.242;2024-01-27T07:55:01;0.60;95.00
84298;DHT22;74466;51.188;3.242;2024-01-27T07:57:28;0.70;94.70
84298;DHT22;74466;51.188;3.242;2024-01-27T07:59:53;0.80;94.30
84298;DHT22;74466;51.188;3.242;2024-01-27T08:02:19;0.80;94.20
84298;DHT22;74466;51.188;3.242;2024-01-27T08:04:45;1.00;94.30
84298;DHT22;74466;51.188;3.242;2024-01-27T08:07:11;1.10;94.30
84298;DHT22;74466;51.188;3.242;2024-01-27T08:09:40;1.20;94.00
84298;DHT22;74466;51.188;3.242;2024-01-27T08:12:06;1.30;93.40
84298;DHT22;74466;51.188;3.242;2024-01-27T08:14:32;1.20;93.10
84298;DHT22;74466;51.188;3.242;2024-01-27T08:17:01;1.30;93.40
84298;DHT22;74466;51.188;3.242;2024-01-27T08:19:29;1.30;93.40
84298;DHT22;74466;51.188;3.242;2024-01-27T08:21:54;1.30;93.30
84298;DHT22;74466;51.188;3.242;2024-01-27T08:24:20;1.40;93.10
84298;DHT22;74466;51.188;3.242;2024-01-27T08:26:47;1.40;93.00
84298;DHT22;74466;51.188;3.242;2024-01-27T08:29:14;1.50;93.00
84298;DHT22;74466;51.188;3.242;2024-01-27T08:31:39;1.60;93.00
84298;DHT22;74466;51.188;3.242;2024-01-27T08:34:05;1.80;93.10
84298;DHT22;74466;51.188;3.242;2024-01-27T08:36:31;1.90;93.10
84298;DHT22;74466;51.188;3.242;2024-01-27T08:38:57;2.00;93.10
84298;DHT22;74466;51.188;3.242;2024-01-27T08:41:24;2.10;92.90
84298;DHT22;74466;51.188;3.242;2024-01-27T08:43:49;2.30;92.70
84298;DHT22;74466;51.188;3.242;2024-01-27T08:46:15;2.40;92.70
84298;DHT22;74466;51.188;3.242;2024-01-27T08:48:43;2.50;92.50
84298;DHT22;74466;51.188;3.242;2024-01-27T08:51:09;2.60;92.50
84298;DHT22;74466;51.188;3.242;2024-01-27T08:53:35;2.80;92.60
84298;DHT22;74466;51.188;3.242;2024-01-27T08:56:01;2.90;92.60
84298;DHT22;74466;51.188;3.242;2024-01-27T08:58:27;3.00;92.20
84298;DHT22;74466;51.188;3.242;2024-01-27T09:00:53;3.20;92.40
84298;DHT22;74466;51.188;3.242;2024-01-27T09:03:19;3.30;92.00
84298;DHT22;74466;51.188;3.242;2024-01-27T09:05:47;3.40;91.90
84298;DHT22;74466;51.188;3.242;2024-01-27T09:08:13;3.60;92.00
84298;DHT22;74466;51.188;3.242;2024-01-27T09:10:39;3.70;92.00
84298;DHT22;74466;51.188;3.242;2024-01-27T09:13:04;3.80;92.00
84298;DHT22;74466;51.188;3.242;2024-01-27T09:15:30;3.90;91.80
84298;DHT22;74466;51.188;3.242;2024-01-27T09:17:56;4.10;91.80
84298;DHT22;74466;51.188;3.242;2024-01-27T09:20:22;4.30;92.00
84298;DHT22;74466;51.188;3.242;2024-01-27T09:22:49;4.50;91.50
84298;DHT22;74466;51.188;3.242;2024-01-27T09:25:16;4.70;91.70
84298;DHT22;74466;51.188;3.242;2024-01-27T09:27:42;5.00;91.10
84298;DHT22;74466;51.188;3.242;2024-01-27T09:30:08;5.10;91.00
84298;DHT22;74466;51.188;3.242;2024-01-27T09:32:34;5.30;90.60
84298;DHT22;74466;51.188;3.242;2024-01-27T09:35:00;5.50;90.50
84298;DHT22;74466;51.188;3.242;2024-01-27T09:37:25;5.70;90.40
84298;DHT22;74466;51.188;3.242;2024-01-27T09:39:51;5.80;90.20
84298;DHT22;74466;51.188;3.242;2024-01-27T09:42:20;6.00;90.00
84298;DHT22;74466;51.188;3.242;2024-01-27T09:44:49;6.00;89.70
84298;DHT22;74466;51.188;3.242;2024-01-27T09:47:17;6.10;89.20
84298;DHT22;74466;51.188;3.242;2024-01-27T09:49:45;6.10;88.80
84298;DHT22;74466;51.188;3.242;2024-01-27T09:52:11;6.10;88.80
84298;DHT22;74466;51.188;3.242;2024-01-27T09:54:37;6.20;89.00
84298;DHT22;74466;51.188;3.242;2024-01-27T09:57:03;6.20;88.60
84298;DHT22;74466;51.188;3.242;2024-01-27T09:59:29;6.40;88.70
84298;DHT22;74466;51.188;3.242;2024-01-27T10:01:57;6.50;89.40
84298;DHT22;74466;51.188;3.242;2024-01-27T10:04:24;6.70;88.90
84298;DHT22;74466;51.188;3.242;2024-01-27T10:06:50;6.90;88.00
84298;DHT22;74466;51.188;3.242;2024-01-27T10:09:17;7.20;87.20
84298;DHT22;74466;51.188;3.242;2024-01-27T10:11:46;7.40;86.30
84298;DHT22;74466;51.188;3.242;2024-01-27T10:14:14;7.60;85.30
84298;DHT22;74466;51.188;3.242;2024-01-27T10:16:41;7.70;84.70
84298;DHT22;74466;51.188;3.242;2024-01-27T10:19:16;7.80;84.70
84298;DHT22;74466;51.188;3.242;2024-01-27T10:21:48;7.90;83.90
84298;DHT22;74466;51.188;3.242;2024-01-27T10:24:14;8.10;83.00
84298;DHT22;74466;51.188;3.242;2024-01-27T10:26:40;8.20;82.90
84298;DHT22;74466;51.188;3.242;2024-01-27T10:29:06;8.30;82.40
84298;DHT22;74466;51.188;3.242;2024-01-27T10:31:34;8.40;82.60
84298;DHT22;74466;51.188;3.242;2024-01-27T10:34:00;8.30;81.00
84298;DHT22;74466;51.188;3.242;2024-01-27T10:36:41;8.40;81.50
84298;DHT22;74466;51.188;3.242;2024-01-27T10:39:21;8.50;81.50
84298;DHT22;74466;51.188;3.242;2024-01-27T10:41:48;8.60;80.90
84298;DHT22;74466;51.188;3.242;2024-01-27T10:44:16;8.70;80.60
84298;DHT22;74466;51.188;3.242;2024-01-27T10:46:46;8.70;80.50
84298;DHT22;74466;51.188;3.242;2024-01-27T10:49:14;8.60;79.70
84298;DHT22;74466;51.188;3.242;2024-01-27T10:51:49;8.70;80.30
84298;DHT22;74466;51.188;3.242;2024-01-27T10:54:25;8.80;80.10
84298;DHT22;74466;51.188;3.242;2024-01-27T10:56:55;8.90;80.10
84298;DHT22;74466;51.188;3.242;2024-01-27T10:59:22;8.80;81.10
84298;DHT22;74466;51.188;3.242;2024-01-27T11:01:49;8.90;79.50
84298;DHT22;74466;51.188;3.242;2024-01-27T11:04:20;8.70;79.20
84298;DHT22;74466;51.188;3.242;2024-01-27T11:06:48;8.80;79.70
84298;DHT22;74466;51.188;3.242;2024-01-27T11:09:14;8.90;80.10
84298;DHT22;74466;51.188;3.242;2024-01-27T11:11:43;8.90;79.70
84298;DHT22;74466;51.188;3.242;2024-01-27T11:14:10;8.90;80.00
84298;DHT22;74466;51.188;3.242;2024-01-27T11:16:36;9.00;80.30
84298;DHT22;74466;51.188;3.242;2024-01-27T11:19:13;9.10;79.50
84298;DHT22;74466;51.188;3.242;2024-01-27T11:21:39;9.20;79.30
84298;DHT22;74466;51.188;3.242;2024-01-27T11:24:18;9.10;79.20
84298;DHT22;74466;51.188;3.242;2024-01-27T11:26:44;9.20;79.70
84298;DHT22;74466;51.188;3.242;2024-01-27T11:29:10;9.20;79.30
84298;DHT22;74466;51.188;3.242;2024-01-27T11:31:45;9.20;78.90
84298;DHT22;74466;51.188;3.242;2024-01-27T11:34:11;9.30;79.80
84298;DHT22;74466;51.188;3.242;2024-01-27T11:36:43;9.40;79.20
84298;DHT22;74466;51.188;3.242;2024-01-27T11:39:29;9.50;79.00
84298;DHT22;74466;51.188;3.242;2024-01-27T11:42:05;9.80;79.30
84298;DHT22;74466;51.188;3.242;2024-01-27T11:44:36;9.90;78.20
84298;DHT22;74466;51.188;3.242;2024-01-27T11:47:02;10.10;77.10
84298;DHT22;74466;51.188;3.242;2024-01-27T11:49:28;10.10;76.80
84298;DHT22;74466;51.188;3.242;2024-01-27T11:51:54;10.10;77.10
84298;DHT22;74466;51.188;3.242;2024-01-27T11:54:20;10.30;76.80
84298;DHT22;74466;51.188;3.242;2024-01-27T11:56:46;10.30;76.50
84298;DHT22;74466;51.188;3.242;2024-01-27T11:59:12;10.30;76.90
84298;DHT22;74466;51.188;3.242;2024-01-27T12:01:39;10.30;76.90
84298;DHT22;74466;51.188;3.242;2024-01-27T12:04:05;10.40;77.50
84298;DHT22;74466;51.188;3.242;2024-01-27T12:06:31;10.30;77.90
84298;DHT22;74466;51.188;3.242;2024-01-27T12:08:57;10.40;78.00
84298;DHT22;74466;51.188;3.242;2024-01-27T12:11:25;10.50;77.90
84298;DHT22;74466;51.188;3.242;2024-01-27T12:13:51;10.50;77.40
84298;DHT22;74466;51.188;3.242;2024-01-27T12:16:17;10.50;77.70
84298;DHT22;74466;51.188;3.242;2024-01-27T12:18:44;10.60;78.00
84298;DHT22;74466;51.188;3.242;2024-01-27T12:21:10;10.60;77.40
84298;DHT22;74466;51.188;3.242;2024-01-27T12:23:36;10.70;77.40
84298;DHT22;74466;51.188;3.242;2024-01-27T12:26:14;10.70;77.90
84298;DHT22;74466;51.188;3.242;2024-01-27T12:28:40;10.80;76.90
84298;DHT22;74466;51.188;3.242;2024-01-27T12:31:06;10.80;76.20
84298;DHT22;74466;51.188;3.242;2024-01-27T12:33:31;10.90;77.10
84298;DHT22;74466;51.188;3.242;2024-01-27T12:35:57;11.00;75.20
84298;DHT22;74466;51.188;3.242;2024-01-27T12:38:23;10.90;74.70
84298;DHT22;74466;51.188;3.242;2024-01-27T12:40:48;10.80;74.80
84298;DHT22;74466;51.188;3.242;2024-01-27T12:43:15;10.80;74.40
84298;DHT22;74466;51.188;3.242;2024-01-27T12:45:41;10.80;75.70
84298;DHT22;74466;51.188;3.242;2024-01-27T12:48:06;10.60;75.00
84298;DHT22;74466;51.188;3.242;2024-01-27T12:50:32;10.60;75.20
84298;DHT22;74466;51.188;3.242;2024-01-27T12:52:59;10.60;75.30
84298;DHT22;74466;51.188;3.242;2024-01-27T12:55:25;10.50;75.30
84298;DHT22;74466;51.188;3.242;2024-01-27T12:57:50;10.50;75.20
84298;DHT22;74466;51.188;3.242;2024-01-27T13:00:17;10.60;75.20
84298;DHT22;74466;51.188;3.242;2024-01-27T13:02:43;10.50;75.30
84298;DHT22;74466;51.188;3.242;2024-01-27T13:05:08;10.30;75.70
84298;DHT22;74466;51.188;3.242;2024-01-27T13:07:35;10.20;75.90
84298;DHT22;74466;51.188;3.242;2024-01-27T13:10:00;10.20;76.10
84298;DHT22;74466;51.188;3.242;2024-01-27T13:12:26;10.10;76.60
84298;DHT22;74466;51.188;3.242;2024-01-27T13:14:52;10.10;76.00
84298;DHT22;74466;51.188;3.242;2024-01-27T13:17:18;10.10;76.20
84298;DHT22;74466;51.188;3.242;2024-01-27T13:19:45;10.10;75.70
84298;DHT22;74466;51.188;3.242;2024-01-27T13:22:11;9.90;75.30
84298;DHT22;74466;51.188;3.242;2024-01-27T13:24:37;10.00;76.40
84298;DHT22;74466;51.188;3.242;2024-01-27T13:27:04;9.90;76.10
84298;DHT22;74466;51.188;3.242;2024-01-27T13:29:30;10.00;76.80
84298;DHT22;74466;51.188;3.242;2024-01-27T13:31:58;10.20;76.20
84298;DHT22;74466;51.188;3.242;2024-01-27T13:34:27;10.20;75.10
84298;DHT22;74466;51.188;3.242;2024-01-27T13:36:55;10.30;74.70
84298;DHT22;74466;51.188;3.242;2024-01-27T13:39:22;10.20;74.30
84298;DHT22;74466;51.188;3.242;2024-01-27T13:41:48;10.20;74.10
84298;DHT22;74466;51.188;3.242;2024-01-27T13:44:14;10.30;73.60
84298;DHT22;74466;51.188;3.242;2024-01-27T13:46:40;10.20;73.20
84298;DHT22;74466;51.188;3.242;2024-01-27T13:49:05;10.20;74.60
84298;DHT22;74466;51.188;3.242;2024-01-27T13:51:31;10.30;74.10
84298;DHT22;74466;51.188;3.242;2024-01-27T13:53:57;10.30;72.70
84298;DHT22;74466;51.188;3.242;2024-01-27T13:56:22;10.20;72.50
84298;DHT22;74466;51.188;3.242;2024-01-27T13:58:48;10.30;72.10
84298;DHT22;74466;51.188;3.242;2024-01-27T14:01:14;10.20;72.40
84298;DHT22;74466;51.188;3.242;2024-01-27T14:03:41;10.10;72.90
84298;DHT22;74466;51.188;3.242;2024-01-27T14:06:07;10.10;72.70
84298;DHT22;74466;51.188;3.242;2024-01-27T14:08:38;10.00;71.90
84298;DHT22;74466;51.188;3.242;2024-01-27T14:11:03;10.00;72.10
84298;DHT22;74466;51.188;3.242;2024-01-27T14:13:29;9.90;73.10
84298;DHT22;74466;51.188;3.242;2024-01-27T14:15:55;10.00;73.20
84298;DHT22;74466;51.188;3.242;2024-01-27T14:18:20;9.90;73.20
84298;DHT22;74466;51.188;3.242;2024-01-27T14:20:47;9.90;73.60
84298;DHT22;74466;51.188;3.242;2024-01-27T14:23:14;10.00;73.90
84298;DHT22;74466;51.188;3.242;2024-01-27T14:25:40;10.00;72.80
84298;DHT22;74466;51.188;3.242;2024-01-27T14:28:07;9.90;72.50
84298;DHT22;74466;51.188;3.242;2024-01-27T14:30:34;9.90;72.30
84298;DHT22;74466;51.188;3.242;2024-01-27T14:33:00;9.90;72.10
84298;DHT22;74466;51.188;3.242;2024-01-27T14:35:26;9.90;72.20
84298;DHT22;74466;51.188;3.242;2024-01-27T14:37:52;9.80;71.80
84298;DHT22;74466;51.188;3.242;2024-01-27T14:40:19;9.80;72.00
84298;DHT22;74466;51.188;3.242;2024-01-27T14:42:46;9.80;72.50
84298;DHT22;74466;51.188;3.242;2024-01-27T14:45:12;9.80;72.20
84298;DHT22;74466;51.188;3.242;2024-01-27T14:47:38;9.60;72.80
84298;DHT22;74466;51.188;3.242;2024-01-27T14:50:04;9.60;73.40
84298;DHT22;74466;51.188;3.242;2024-01-27T14:52:32;9.50;73.10
84298;DHT22;74466;51.188;3.242;2024-01-27T14:54:58;9.50;74.30
84298;DHT22;74466;51.188;3.242;2024-01-27T14:57:23;9.50;74.40
84298;DHT22;74466;51.188;3.242;2024-01-27T14:59:49;9.50;73.40
84298;DHT22;74466;51.188;3.242;2024-01-27T15:02:15;9.50;72.90
84298;DHT22;74466;51.188;3.242;2024-01-27T15:04:41;9.30;72.30
84298;DHT22;74466;51.188;3.242;2024-01-27T15:07:07;9.30;71.60
84298;DHT22;74466;51.188;3.242;2024-01-27T15:09:35;9.30;71.50
84298;DHT22;74466;51.188;3.242;2024-01-27T15:12:01;9.20;72.00
84298;DHT22;74466;51.188;3.242;2024-01-27T15:14:27;9.20;72.30
84298;DHT22;74466;51.188;3.242;2024-01-27T15:16:52;9.10;72.00
84298;DHT22;74466;51.188;3.242;2024-01-27T15:19:18;9.10;72.80
84298;DHT22;74466;51.188;3.242;2024-01-27T15:21:44;9.00;73.20
84298;DHT22;74466;51.188;3.242;2024-01-27T15:24:11;9.10;73.20
84298;DHT22;74466;51.188;3.242;2024-01-27T15:26:37;9.10;72.90
84298;DHT22;74466;51.188;3.242;2024-01-27T15:29:02;8.90;73.10
84298;DHT22;74466;51.188;3.242;2024-01-27T15:31:28;8.90;73.40
84298;DHT22;74466;51.188;3.242;2024-01-27T15:33:54;9.00;74.20
84298;DHT22;74466;51.188;3.242;2024-01-27T15:36:19;8.90;72.50